Time;durP1;ratioP1;P1;durP2;ratioP2;P2;SDS_P1;SDS_P2;PMS_P1;PMS_P2;Temp;Humidity;BMP_temperature;BMP_pressure;BME280_temperature;BME280_humidity;BME280_pressure;Samples;Min_cycle;Max_cycle;Signal;HPM_P1;HPM_P2
2022/06/06 09:32:02;;;;;;;;;;;13.90;99.90;;;;;;5100576;27;20930;-47
2022/06/06 09:34:29;;;;;;;1.77;1.42;;;13.90;99.90;;;;;;5089914;28;19920;-51
2022/06/06 09:36:55;;;;;;;1.58;1.10;;;13.90;99.90;;;;;;5086810;28;20040;-56
2022/06/06 09:39:22;;;;;;;1.58;1.20;;;14.00;99.90;;;;;;5089503;28;20111;-47
2022/06/06 09:41:49;;;;;;;1.95;1.23;;;14.00;99.90;;;;;;5091188;28;20533;-52
2022/06/06 09:44:16;;;;;;;4.05;1.30;;;14.10;99.90;;;;;;5087908;28;20056;-55
2022/06/06 09:46:43;;;;;;;1.70;1.10;;;14.20;99.90;;;;;;5088289;28;20040;-51
2022/06/06 09:49:16;;;;;;;1.67;1.10;;;14.10;99.90;;;;;;5086845;28;20491;-54
2022/06/06 09:51:43;;;;;;;1.75;1.23;;;14.20;99.90;;;;;;5087915;28;20063;-53
2022/06/06 09:59:40;;;;;;;1.63;0.93;;;14.30;99.90;;;;;;5089828;28;20056;-56
2022/06/06 20:15:06;;;;;;;4.25;3.17;;;15.90;99.90;;;;;;5111521;27;20396;-52
2022/06/06 20:17:33;;;;;;;6.68;3.70;;;15.80;99.90;;;;;;5104652;28;20131;-53
2022/06/06 20:19:59;;;;;;;6.15;3.53;;;15.80;99.90;;;;;;5096119;28;20384;-57
2022/06/06 20:22:26;;;;;;;7.88;3.28;;;15.90;99.90;;;;;;5092108;28;20055;-52
2022/06/06 20:24:53;;;;;;;5.70;2.80;;;16.00;99.90;;;;;;5109375;28;20031;-53
2022/06/06 20:27:20;;;;;;;6.32;3.22;;;16.00;99.90;;;;;;5091364;28;20058;-53
2022/06/06 20:29:48;;;;;;;6.05;2.80;;;16.00;99.90;;;;;;5104173;28;20036;-51
2022/06/06 20:32:17;;;;;;;6.53;3.05;;;16.10;99.90;;;;;;5111550;28;20039;-54
2022/06/06 20:34:47;;;;;;;7.60;2.70;;;16.10;99.90;;;;;;5111628;28;20039;-53
2022/06/06 20:37:14;;;;;;;6.82;3.40;;;16.10;99.90;;;;;;5102258;28;20040;-55
2022/06/06 20:39:42;;;;;;;4.90;2.90;;;16.20;99.90;;;;;;5099336;28;20048;-55
2022/06/06 20:42:09;;;;;;;6.75;3.10;;;16.20;99.90;;;;;;5110456;28;20386;-58
2022/06/06 20:44:36;;;;;;;6.68;2.85;;;16.20;99.90;;;;;;5110406;28;20039;-51
2022/06/06 20:47:03;;;;;;;7.43;2.88;;;16.20;99.90;;;;;;5109058;28;20057;-52
2022/06/06 20:49:29;;;;;;;8.05;3.13;;;16.20;99.90;;;;;;5090775;28;20495;-55
2022/06/06 20:51:56;;;;;;;6.13;2.83;;;16.20;99.90;;;;;;5090632;28;20037;-51
2022/06/06 20:54:23;;;;;;;6.75;2.97;;;16.20;99.90;;;;;;5090605;28;20537;-55
2022/06/06 20:56:50;;;;;;;7.65;2.60;;;16.20;99.90;;;;;;5090573;28;20412;-50
2022/06/06 20:59:17;;;;;;;8.30;3.20;;;16.20;99.90;;;;;;5092578;28;20036;-53
2022/06/06 21:01:43;;;;;;;6.78;3.00;;;16.20;99.90;;;;;;5089220;28;20113;-54
2022/06/06 21:04:10;;;;;;;6.47;2.55;;;16.20;99.90;;;;;;5089157;28;20044;-51
2022/06/06 21:06:37;;;;;;;9.82;3.20;;;16.20;99.90;;;;;;5089238;28;20479;-53
2022/06/06 21:09:07;;;;;;;6.45;2.80;;;16.20;99.90;;;;;;5089915;28;20040;-52
2022/06/06 21:11:33;;;;;;;5.88;2.97;;;16.20;99.90;;;;;;5089929;28;20395;-55
2022/06/06 21:14:00;;;;;;;6.15;2.80;;;16.20;99.90;;;;;;5089340;28;20051;-55
2022/06/06 21:16:27;;;;;;;5.40;2.90;;;16.10;99.90;;;;;;5097479;28;20044;-54
2022/06/06 21:18:54;;;;;;;7.03;3.15;;;16.10;99.90;;;;;;5109628;28;20032;-49
2022/06/06 21:21:21;;;;;;;9.32;2.72;;;16.10;99.90;;;;;;5109442;28;20043;-50
2022/06/06 21:23:52;;;;;;;9.60;3.55;;;16.10;99.90;;;;;;5109361;28;20035;-51
2022/06/06 21:26:21;;;;;;;10.05;3.15;;;16.10;99.90;;;;;;5076796;28;20522;-55
2022/06/06 21:28:49;;;;;;;8.88;3.42;;;16.10;99.90;;;;;;5075922;28;20041;-52
2022/06/06 21:31:16;;;;;;;5.68;3.15;;;16.00;99.90;;;;;;5088202;28;20109;-52
2022/06/06 21:33:43;;;;;;;7.55;3.15;;;16.10;99.90;;;;;;5074711;28;20037;-47
2022/06/06 21:36:10;;;;;;;7.78;3.42;;;16.00;99.90;;;;;;5095667;28;20059;-53
2022/06/06 21:38:37;;;;;;;7.22;2.90;;;16.00;99.90;;;;;;5094952;28;20040;-52
2022/06/06 21:41:04;;;;;;;6.47;3.90;;;16.00;99.90;;;;;;5095970;28;20068;-55
2022/06/06 21:43:31;;;;;;;8.40;3.35;;;16.00;99.90;;;;;;5095713;28;20040;-53
2022/06/06 21:45:58;;;;;;;7.80;3.20;;;16.00;99.90;;;;;;5095334;28;20070;-51
2022/06/06 21:48:24;;;;;;;9.10;3.38;;;16.00;99.90;;;;;;5095197;28;20047;-49
2022/06/06 21:53:56;;;;;;;8.18;3.60;;;15.90;99.90;;;;;;5093878;28;20048;-54
2022/06/06 21:56:23;;;;;;;6.40;3.67;;;15.90;99.90;;;;;;5094651;28;20055;-51
2022/06/06 21:58:49;;;;;;;6.90;3.40;;;15.80;99.90;;;;;;5095243;28;20082;-52
2022/06/06 22:01:16;;;;;;;7.15;3.40;;;15.80;99.90;;;;;;5095849;28;20044;-51
2022/06/06 22:03:43;;;;;;;7.47;3.70;;;15.70;99.90;;;;;;5089433;28;20047;-51
2022/06/06 22:06:11;;;;;;;8.38;3.88;;;15.70;99.90;;;;;;5095548;28;20054;-49
2022/06/06 22:08:38;;;;;;;7.07;3.83;;;15.60;99.90;;;;;;5083167;28;20094;-54
2022/06/06 22:11:04;;;;;;;8.55;4.00;;;15.60;99.90;;;;;;5086688;28;20115;-49
2022/06/06 22:13:31;;;;;;;8.35;4.25;;;15.60;99.90;;;;;;5085298;28;20113;-52
2022/06/06 22:15:59;;;;;;;10.95;3.78;;;15.50;99.90;;;;;;5082906;28;20128;-54
2022/06/06 22:18:27;;;;;;;7.03;3.85;;;15.50;99.90;;;;;;5094397;28;20448;-51
